createdAt,value
2023-05-16T08:08:10.334Z,86.55
2023-05-16T08:10:38.568Z,86.95
2023-05-16T08:13:06.594Z,87.58
2023-05-16T08:15:34.662Z,87.51
2023-05-16T08:18:02.951Z,87.82
2023-05-16T08:20:31.178Z,87.70
2023-05-16T08:22:59.456Z,88.30
2023-05-16T08:25:28.225Z,88.95
2023-05-16T08:27:57.576Z,89.00
2023-05-16T08:30:26.640Z,88.93
2023-05-16T08:32:54.673Z,88.66
2023-05-16T08:35:23.111Z,89.07
2023-05-16T08:37:51.776Z,88.59
2023-05-16T08:40:20.687Z,88.79
2023-05-16T08:42:48.828Z,88.93
2023-05-16T08:45:17.351Z,88.80
2023-05-16T08:47:46.993Z,88.45
2023-05-16T08:50:16.396Z,88.81
2023-05-16T08:52:46.089Z,88.73
2023-05-16T08:55:16.170Z,88.66
2023-05-16T08:57:45.688Z,88.93
2023-05-16T09:00:14.382Z,89.51
2023-05-16T09:02:44.922Z,89.53
2023-05-16T09:05:15.527Z,90.36
2023-05-16T09:07:44.731Z,90.70
2023-05-16T09:10:13.398Z,90.57
2023-05-16T09:12:42.165Z,90.18
2023-05-16T09:15:11.693Z,90.09
2023-05-16T09:17:45.597Z,90.01
2023-05-16T09:20:21.633Z,90.24
2023-05-16T09:22:55.346Z,90.01
2023-05-16T09:25:31.008Z,89.62
2023-05-16T09:28:02.803Z,89.54
2023-05-16T09:30:37.345Z,89.25
2023-05-16T09:33:08.289Z,89.19
2023-05-16T09:35:45.078Z,89.02
2023-05-16T09:38:16.204Z,88.78
2023-05-16T09:40:45.542Z,89.13
2023-05-16T09:43:17.338Z,88.93
2023-05-16T09:45:48.467Z,88.98
2023-05-16T09:48:18.362Z,88.79
2023-05-16T09:50:53.550Z,88.15
2023-05-16T09:53:29.235Z,88.46
2023-05-16T09:56:16.017Z,88.91
2023-05-16T09:58:46.278Z,88.72
2023-05-16T10:01:14.358Z,88.61
2023-05-16T10:03:43.998Z,89.01
2023-05-16T10:06:13.799Z,89.79
2023-05-16T10:08:43.845Z,89.89
2023-05-16T10:11:12.671Z,89.52
2023-05-16T10:13:41.700Z,89.87
2023-05-16T10:16:14.747Z,89.69
2023-05-16T10:18:43.706Z,89.43
2023-05-16T10:21:16.392Z,89.75
2023-05-16T10:23:48.757Z,88.97
2023-05-16T10:26:17.895Z,88.92
2023-05-16T10:28:46.469Z,90.24
2023-05-16T10:31:15.503Z,91.03
2023-05-16T10:33:44.194Z,90.97
2023-05-16T10:36:13.471Z,91.55
2023-05-16T10:38:43.069Z,91.45
2023-05-16T10:41:11.948Z,90.95
2023-05-16T10:43:40.994Z,90.63
2023-05-16T10:46:11.561Z,90.24
2023-05-16T10:48:41.226Z,90.62
2023-05-16T10:51:39.282Z,90.77
2023-05-16T10:54:15.069Z,90.65
2023-05-16T10:56:43.748Z,90.53
2023-05-16T10:59:25.637Z,90.74
2023-05-16T11:01:56.400Z,90.87
2023-05-16T11:04:51.492Z,90.72
2023-05-16T11:07:21.524Z,90.75
2023-05-16T11:10:10.012Z,90.37
2023-05-16T11:12:38.740Z,89.99
2023-05-16T11:15:26.976Z,89.49
2023-05-16T11:18:10.335Z,88.87
2023-05-16T11:20:40.042Z,88.98
2023-05-16T11:23:17.245Z,88.90
2023-05-16T11:25:47.272Z,89.27
2023-05-16T11:28:15.689Z,87.96
2023-05-16T11:30:46.204Z,87.67
2023-05-16T11:33:14.397Z,87.58
2023-05-16T11:35:43.649Z,87.35
2023-05-16T11:38:18.757Z,87.25
2023-05-16T11:40:46.858Z,87.46
2023-05-16T11:43:19.605Z,87.66
2023-05-16T11:45:54.795Z,87.57
2023-05-16T11:48:35.835Z,87.92
2023-05-16T11:51:04.869Z,87.55
2023-05-16T11:53:34.623Z,87.34
2023-05-16T11:56:03.576Z,87.70
2023-05-16T11:58:31.856Z,87.79
2023-05-16T12:01:00.162Z,87.91
2023-05-16T12:03:28.910Z,88.05
2023-05-16T12:05:58.021Z,88.60
2023-05-16T12:08:26.059Z,88.68
2023-05-16T12:10:54.738Z,88.82
2023-05-16T12:13:24.653Z,89.04
2023-05-16T12:15:53.339Z,88.96
2023-05-16T12:18:22.247Z,89.03
2023-05-16T12:20:52.514Z,89.21
2023-05-16T12:23:20.620Z,88.96
2023-05-16T12:25:49.669Z,88.98
2023-05-16T12:28:18.008Z,89.13
2023-05-16T12:30:48.267Z,89.33
2023-05-16T12:33:17.321Z,89.65
2023-05-16T12:35:47.361Z,89.46
2023-05-16T12:38:17.451Z,89.51
2023-05-16T12:40:46.521Z,89.66
2023-05-16T12:43:15.573Z,89.62
2023-05-16T12:45:52.982Z,89.43
2023-05-16T12:48:22.223Z,89.31
2023-05-16T12:50:51.152Z,89.25
2023-05-16T12:53:19.512Z,89.38
2023-05-16T12:55:47.522Z,89.67
2023-05-16T12:58:16.759Z,89.52
2023-05-16T13:00:44.969Z,89.60
2023-05-16T13:03:15.530Z,89.81
2023-05-16T13:05:44.703Z,89.79
2023-05-16T13:08:12.677Z,89.90
2023-05-16T13:10:40.721Z,90.05
2023-05-16T13:13:09.043Z,89.75
2023-05-16T13:15:37.200Z,89.74
2023-05-16T13:18:05.625Z,89.66
2023-05-16T13:20:33.954Z,89.69
2023-05-16T13:23:02.614Z,89.69
2023-05-16T13:25:31.485Z,89.76
2023-05-16T13:27:59.604Z,89.81
2023-05-16T13:30:29.202Z,90.14
2023-05-16T13:32:57.452Z,90.07
2023-05-16T13:35:27.255Z,90.39
2023-05-16T13:37:55.876Z,90.65
2023-05-16T13:40:23.908Z,90.79
2023-05-16T13:42:52.289Z,90.99
2023-05-16T13:45:20.742Z,91.10
2023-05-16T13:47:49.008Z,90.57
2023-05-16T13:50:17.214Z,90.25
2023-05-16T13:52:45.826Z,90.21
2023-05-16T13:55:13.885Z,90.59
2023-05-16T13:57:42.003Z,91.07
2023-05-16T14:02:45.122Z,91.03
2023-05-16T14:05:13.605Z,91.04
2023-05-16T14:07:42.427Z,90.76
2023-05-16T14:10:11.425Z,90.51
2023-05-16T14:12:40.321Z,90.12
2023-05-16T14:15:09.171Z,89.90
2023-05-16T14:17:37.563Z,90.00
2023-05-16T14:20:09.691Z,89.70
2023-05-16T14:22:38.932Z,89.66
2023-05-16T14:25:07.828Z,89.65
2023-05-16T14:27:35.804Z,89.09
2023-05-16T14:30:05.131Z,89.05
2023-05-16T14:32:33.822Z,89.41
2023-05-16T14:35:01.995Z,89.66
2023-05-16T14:37:30.015Z,89.74
2023-05-16T14:39:59.776Z,89.65
2023-05-16T14:42:28.110Z,89.49
2023-05-16T14:44:56.295Z,89.49
2023-05-16T14:47:24.669Z,89.51
2023-05-16T14:49:54.595Z,89.01
2023-05-16T14:52:22.722Z,88.73
2023-05-16T14:54:50.960Z,88.33
2023-05-16T14:57:19.018Z,88.66
2023-05-16T14:59:48.536Z,88.26
2023-05-16T15:02:16.618Z,88.35
2023-05-16T15:04:44.939Z,88.43
2023-05-16T15:07:13.145Z,88.42
2023-05-16T15:09:41.428Z,88.83
2023-05-16T15:12:09.880Z,89.10
2023-05-16T15:14:37.974Z,89.11
2023-05-16T15:17:08.754Z,89.27
2023-05-16T15:19:37.365Z,89.41
2023-05-16T15:22:07.934Z,89.90
2023-05-16T15:24:36.528Z,89.96
2023-05-16T15:27:05.388Z,90.30
2023-05-16T15:29:33.361Z,90.38
2023-05-16T15:32:06.032Z,91.45
2023-05-16T15:34:35.397Z,91.97
2023-05-16T15:37:03.968Z,92.26
2023-05-16T15:39:32.003Z,92.97
2023-05-16T15:42:09.217Z,94.69
2023-05-16T15:44:39.783Z,93.35
2023-05-16T15:47:09.005Z,93.48
2023-05-16T15:49:37.217Z,93.77
2023-05-16T15:52:06.177Z,94.01
2023-05-16T15:54:34.844Z,94.05
2023-05-16T15:57:03.424Z,95.50
2023-05-16T15:59:31.595Z,95.01
2023-05-16T16:01:59.819Z,94.72
2023-05-16T16:04:27.972Z,95.71
2023-05-16T16:06:56.249Z,96.09
2023-05-16T16:09:24.511Z,95.40
2023-05-16T16:11:56.430Z,95.73
2023-05-16T16:14:24.856Z,96.28
2023-05-16T16:16:52.884Z,95.86
2023-05-16T16:19:21.533Z,95.60
2023-05-16T16:21:49.883Z,95.42
2023-05-16T16:24:18.144Z,95.95
2023-05-16T16:26:46.569Z,95.44
2023-05-16T16:29:14.629Z,95.49
2023-05-16T16:31:42.979Z,95.77
2023-05-16T16:34:11.287Z,95.14
2023-05-16T16:36:39.646Z,95.70
2023-05-16T16:39:07.677Z,95.77
2023-05-16T16:41:36.301Z,95.76
2023-05-16T16:44:04.727Z,95.25
2023-05-16T16:46:33.179Z,94.70
2023-05-16T16:49:01.455Z,95.09
2023-05-16T16:51:31.533Z,95.95
2023-05-16T16:54:00.010Z,96.21
2023-05-16T16:56:29.651Z,96.26
2023-05-16T16:58:57.775Z,95.68
2023-05-16T17:01:28.204Z,95.43
2023-05-16T17:03:58.818Z,95.40
2023-05-16T17:06:26.806Z,95.20
2023-05-16T17:08:54.873Z,95.28
2023-05-16T17:11:23.665Z,95.52
2023-05-16T17:13:51.910Z,96.00
2023-05-16T17:16:20.136Z,96.10
2023-05-16T17:18:49.865Z,96.11
2023-05-16T17:21:18.207Z,96.37
2023-05-16T17:23:46.695Z,95.87
2023-05-16T17:26:14.648Z,95.76
2023-05-16T17:28:43.042Z,96.56
2023-05-16T17:31:11.144Z,96.26
2023-05-16T17:33:39.674Z,96.15
2023-05-16T17:36:08.100Z,96.20
2023-05-16T17:38:36.944Z,96.40
2023-05-16T17:41:05.344Z,96.99
2023-05-16T17:43:33.515Z,96.84
2023-05-16T17:46:01.622Z,96.75
2023-05-16T17:48:30.605Z,96.91
2023-05-16T17:50:59.232Z,96.53
2023-05-16T17:53:27.458Z,96.22
2023-05-16T17:55:56.951Z,96.12
2023-05-16T17:58:25.218Z,95.98
2023-05-16T18:00:54.748Z,96.37
2023-05-16T18:03:22.949Z,96.58
2023-05-16T18:05:51.261Z,96.33
2023-05-16T18:08:19.776Z,96.26
2023-05-16T18:10:51.729Z,96.03
2023-05-16T18:13:22.221Z,95.47
2023-05-16T18:15:50.861Z,96.16
2023-05-16T18:18:19.114Z,96.18
2023-05-16T18:20:47.591Z,96.07
2023-05-16T18:23:15.795Z,96.02
2023-05-16T18:25:43.890Z,95.89
2023-05-16T18:28:12.099Z,95.82
2023-05-16T18:30:40.283Z,95.97
2023-05-16T18:33:08.432Z,95.94
2023-05-16T18:35:36.630Z,96.08
2023-05-16T18:38:04.809Z,96.01
2023-05-16T18:40:33.076Z,95.58
2023-05-16T18:43:01.782Z,95.66
2023-05-16T18:45:30.334Z,95.64
2023-05-16T18:47:58.670Z,95.48
2023-05-16T18:50:29.120Z,95.65
2023-05-16T18:52:57.735Z,95.47
2023-05-16T18:55:26.536Z,95.49
2023-05-16T18:57:55.018Z,95.56
2023-05-16T19:00:23.034Z,95.71
2023-05-16T19:02:52.096Z,95.25
2023-05-16T19:05:20.300Z,95.22
2023-05-16T19:07:49.234Z,94.96
2023-05-16T19:10:17.443Z,95.06
2023-05-16T19:12:49.094Z,95.32
2023-05-16T19:15:17.799Z,95.88
2023-05-16T19:17:47.457Z,96.20
2023-05-16T19:20:15.761Z,97.05
2023-05-16T19:22:43.791Z,96.93
2023-05-16T19:25:12.037Z,97.18
2023-05-16T19:27:40.316Z,96.79
2023-05-16T19:30:09.099Z,96.92
2023-05-16T19:32:37.530Z,96.45
2023-05-16T19:35:07.531Z,96.05
2023-05-16T19:37:35.504Z,95.95
2023-05-16T19:40:05.246Z,96.14
2023-05-16T19:42:33.489Z,95.95
2023-05-16T19:45:01.758Z,96.11
2023-05-16T19:47:29.847Z,96.24
2023-05-16T19:49:58.055Z,96.64
2023-05-16T19:52:26.260Z,96.44
2023-05-16T19:54:54.465Z,96.34
2023-05-16T19:57:22.517Z,96.01
2023-05-16T19:59:50.550Z,96.81
2023-05-16T20:02:20.169Z,97.28
2023-05-16T20:04:50.712Z,97.21
2023-05-16T20:07:19.229Z,97.54
2023-05-16T20:09:47.348Z,97.62
2023-05-16T20:12:16.184Z,97.36
2023-05-16T20:14:44.549Z,97.35
2023-05-16T20:17:12.876Z,97.31
2023-05-16T20:19:43.982Z,97.84
2023-05-16T20:22:12.749Z,97.47
2023-05-16T20:24:40.790Z,97.64
2023-05-16T20:27:08.727Z,97.89
2023-05-16T20:29:37.654Z,97.93
2023-05-16T20:32:06.067Z,97.81
2023-05-16T20:34:34.161Z,97.93
2023-05-16T20:37:02.736Z,98.60
2023-05-16T20:39:31.884Z,98.75
2023-05-16T20:42:00.093Z,98.63
2023-05-16T20:44:29.689Z,98.52
2023-05-16T20:46:58.258Z,97.97
2023-05-16T20:49:26.353Z,97.70
2023-05-16T20:51:54.843Z,98.20
2023-05-16T20:54:22.878Z,97.70
2023-05-16T20:56:51.003Z,97.41
2023-05-16T20:59:19.158Z,97.59
2023-05-16T21:01:47.337Z,97.80
2023-05-16T21:04:15.852Z,97.54
2023-05-16T21:06:44.295Z,97.56
2023-05-16T21:09:12.540Z,97.66
2023-05-16T21:11:40.916Z,97.51
2023-05-16T21:14:09.219Z,98.13
2023-05-16T21:16:37.597Z,97.88
2023-05-16T21:19:05.721Z,97.44
2023-05-16T21:21:34.023Z,97.12
2023-05-16T21:24:02.231Z,96.96
2023-05-16T21:26:30.748Z,95.92
2023-05-16T21:28:58.735Z,95.72
2023-05-16T21:31:27.878Z,96.25
2023-05-16T21:33:56.156Z,95.67
2023-05-16T21:36:24.333Z,95.49
2023-05-16T21:38:52.607Z,95.95
2023-05-16T21:41:21.828Z,96.33
2023-05-16T21:43:49.975Z,96.03
2023-05-16T21:46:18.247Z,96.09
2023-05-16T21:48:46.817Z,95.85
2023-05-16T21:51:15.131Z,95.91
2023-05-16T21:53:43.379Z,96.30
2023-05-16T21:56:11.489Z,95.27
2023-05-16T21:58:40.033Z,94.80
2023-05-16T22:01:08.231Z,94.59
2023-05-16T22:03:36.382Z,95.35
2023-05-16T22:06:05.173Z,94.78
2023-05-16T22:08:33.154Z,95.36
2023-05-16T22:11:01.702Z,95.85
2023-05-16T22:13:29.919Z,95.61
2023-05-16T22:16:04.685Z,95.75
2023-05-16T22:18:34.137Z,95.92
2023-05-16T22:21:02.927Z,96.18
2023-05-16T22:23:31.203Z,96.40
2023-05-16T22:25:59.847Z,96.15
2023-05-16T22:28:28.028Z,96.06
2023-05-16T22:30:56.096Z,96.43
2023-05-16T22:33:24.729Z,96.42
2023-05-16T22:35:53.549Z,96.62
2023-05-16T22:38:21.883Z,96.20
2023-05-16T22:40:50.148Z,96.40
2023-05-16T22:43:18.253Z,96.46
2023-05-16T22:45:46.512Z,96.76
2023-05-16T22:48:14.780Z,96.32
2023-05-16T22:50:42.956Z,95.82
2023-05-16T22:53:11.099Z,95.86
2023-05-16T22:55:39.470Z,95.83
2023-05-16T22:58:07.580Z,95.52
2023-05-16T23:00:35.835Z,95.06
2023-05-16T23:03:04.463Z,95.82
2023-05-16T23:05:32.912Z,96.04
2023-05-16T23:08:01.075Z,96.00
2023-05-16T23:10:29.096Z,95.47
2023-05-16T23:12:57.426Z,95.94
2023-05-16T23:15:25.874Z,95.13
2023-05-16T23:17:54.111Z,95.25
2023-05-16T23:20:22.653Z,94.61
2023-05-16T23:22:50.887Z,94.65
2023-05-16T23:25:19.051Z,95.32
2023-05-16T23:27:47.302Z,95.12
2023-05-16T23:30:16.002Z,95.63
2023-05-16T23:32:44.119Z,95.16
2023-05-16T23:35:12.169Z,95.25
2023-05-16T23:37:40.245Z,94.62
2023-05-16T23:40:09.461Z,94.40
2023-05-16T23:42:37.643Z,95.37
2023-05-16T23:45:06.609Z,95.32
2023-05-16T23:47:35.050Z,95.57
2023-05-16T23:50:04.127Z,95.09
2023-05-16T23:52:32.222Z,95.00
2023-05-16T23:55:00.575Z,95.25
2023-05-16T23:57:28.884Z,95.01
2023-05-16T23:59:57.122Z,95.46
